createdAt,value
2022-10-20T00:04:29.657Z,11.50
2022-10-20T00:11:14.924Z,11.50
2022-10-20T00:17:57.271Z,11.50
2022-10-20T00:24:39.594Z,11.50
2022-10-20T00:31:23.382Z,11.50
2022-10-20T00:38:06.108Z,11.50
2022-10-20T00:44:51.062Z,11.50
2022-10-20T00:51:34.143Z,11.50
2022-10-20T00:58:16.850Z,11.50
2022-10-20T01:04:59.645Z,11.50
2022-10-20T01:12:01.383Z,11.30
2022-10-20T01:18:53.376Z,11.10
2022-10-20T01:25:49.558Z,11.20
2022-10-20T01:32:37.425Z,11.20
2022-10-20T01:39:29.662Z,11.10
2022-10-20T01:46:13.436Z,11.10
2022-10-20T01:52:57.984Z,11.10
2022-10-20T02:00:04.312Z,11.10
2022-10-20T02:06:58.386Z,10.90
2022-10-20T02:13:42.218Z,11.00
2022-10-20T02:20:25.247Z,11.10
2022-10-20T02:27:25.026Z,11.10
2022-10-20T02:34:07.740Z,11.00
2022-10-20T02:40:50.083Z,11.00
2022-10-20T02:47:32.431Z,10.90
2022-10-20T02:54:15.009Z,11.00
2022-10-20T03:00:57.413Z,10.90
2022-10-20T03:07:40.024Z,10.90
2022-10-20T03:14:22.426Z,11.00
2022-10-20T03:21:04.837Z,11.00
2022-10-20T03:27:47.310Z,10.90
2022-10-20T03:34:29.656Z,11.00
2022-10-20T03:41:12.855Z,11.00
2022-10-20T03:47:55.188Z,11.00
2022-10-20T03:54:37.576Z,11.00
2022-10-20T04:01:24.417Z,10.90
2022-10-20T04:08:06.884Z,10.90
2022-10-20T04:14:49.441Z,11.10
2022-10-20T04:21:31.780Z,11.10
2022-10-20T04:28:19.053Z,11.10
2022-10-20T04:35:01.671Z,11.00
2022-10-20T04:41:44.110Z,11.00
2022-10-20T04:48:26.468Z,11.10
2022-10-20T04:55:09.142Z,11.10
2022-10-20T05:01:51.565Z,11.10
2022-10-20T05:08:33.968Z,11.20
2022-10-20T05:15:16.390Z,11.40
2022-10-20T05:21:58.745Z,11.30
2022-10-20T05:28:45.303Z,11.20
2022-10-20T05:35:28.500Z,11.30
2022-10-20T05:42:10.868Z,11.40
2022-10-20T05:48:56.813Z,11.40
2022-10-20T05:55:39.152Z,11.30
2022-10-20T06:02:22.129Z,11.30
2022-10-20T06:09:07.686Z,11.30
2022-10-20T06:15:50.181Z,11.30
2022-10-20T06:22:32.517Z,11.50
2022-10-20T06:29:17.191Z,11.60
2022-10-20T06:36:01.245Z,11.80
2022-10-20T06:42:43.588Z,12.00
2022-10-20T06:49:26.043Z,12.20
2022-10-20T06:56:11.905Z,12.50
2022-10-20T07:02:54.234Z,12.90
2022-10-20T07:09:36.571Z,13.30
2022-10-20T07:16:24.532Z,13.70
2022-10-20T07:23:06.843Z,14.20
2022-10-20T07:29:49.191Z,15.60
2022-10-20T07:36:35.852Z,16.90
2022-10-20T07:43:19.208Z,16.90
2022-10-20T07:50:01.607Z,17.00
2022-10-20T07:56:46.001Z,18.30
2022-10-20T08:03:28.336Z,19.80
2022-10-20T08:10:10.830Z,20.60
2022-10-20T08:16:59.438Z,20.80
2022-10-20T08:23:46.762Z,21.10
2022-10-20T08:30:29.171Z,22.50
2022-10-20T08:37:11.545Z,22.50
2022-10-20T08:43:56.307Z,22.80
2022-10-20T08:50:45.676Z,23.00
2022-10-20T08:57:33.379Z,23.00
2022-10-20T09:04:18.304Z,23.70
2022-10-20T09:11:03.025Z,25.10
2022-10-20T09:18:02.231Z,25.80
2022-10-20T09:24:45.998Z,24.90
2022-10-20T09:31:35.791Z,23.70
2022-10-20T09:38:31.699Z,23.40
2022-10-20T09:45:15.729Z,22.10
2022-10-20T09:52:02.743Z,21.40
2022-10-20T09:58:47.580Z,20.30
2022-10-20T10:05:33.722Z,19.70
2022-10-20T10:12:19.379Z,18.90
2022-10-20T10:19:04.655Z,19.00
2022-10-20T10:25:47.602Z,19.30
2022-10-20T10:32:30.430Z,19.20
2022-10-20T10:39:15.093Z,19.60
2022-10-20T10:46:04.900Z,19.70
2022-10-20T10:53:01.799Z,19.50
2022-10-20T10:59:49.539Z,20.00
2022-10-20T11:06:59.075Z,20.30
2022-10-20T11:14:01.652Z,19.80
2022-10-20T11:21:07.567Z,19.50
2022-10-20T11:27:50.668Z,18.80
2022-10-20T11:34:54.394Z,18.90
2022-10-20T11:42:03.957Z,19.10
2022-10-20T11:48:54.461Z,19.40
2022-10-20T11:56:05.485Z,19.50
2022-10-20T12:03:12.814Z,19.00
2022-10-20T12:10:16.070Z,19.20
2022-10-20T12:17:22.627Z,19.10
2022-10-20T12:25:03.063Z,19.10
2022-10-20T12:32:21.068Z,19.10
2022-10-20T12:39:19.008Z,19.00
2022-10-20T12:46:11.701Z,19.00
2022-10-20T12:52:54.513Z,19.30
2022-10-20T12:59:39.043Z,19.20
2022-10-20T13:06:27.329Z,19.30
2022-10-20T13:13:09.623Z,19.20
2022-10-20T13:20:02.649Z,19.10
2022-10-20T13:26:56.113Z,18.60
2022-10-20T13:34:03.965Z,18.30
2022-10-20T13:40:50.424Z,18.20
2022-10-20T13:48:04.419Z,18.30
2022-10-20T13:54:50.615Z,18.60
2022-10-20T14:01:35.907Z,18.70
2022-10-20T14:08:23.211Z,18.90
2022-10-20T14:15:08.116Z,18.70
2022-10-20T14:21:50.972Z,18.70
2022-10-20T14:28:35.717Z,18.70
2022-10-20T14:35:32.592Z,18.40
2022-10-20T14:42:23.702Z,18.50
2022-10-20T14:49:18.691Z,18.30
2022-10-20T14:56:03.021Z,18.10
2022-10-20T15:02:45.940Z,18.20
2022-10-20T15:09:38.875Z,18.20
2022-10-20T15:16:43.600Z,18.20
2022-10-20T15:23:27.881Z,17.90
2022-10-20T15:30:21.409Z,17.70
2022-10-20T15:37:23.964Z,17.70
2022-10-20T15:44:15.342Z,17.70
2022-10-20T15:50:59.173Z,17.50
2022-10-20T15:57:41.505Z,17.20
2022-10-20T16:04:28.474Z,17.30
2022-10-20T16:11:12.206Z,17.20
2022-10-20T16:17:57.243Z,17.20
2022-10-20T16:24:39.575Z,17.20
2022-10-20T16:31:22.041Z,17.10
2022-10-20T16:38:04.403Z,17.10
2022-10-20T16:44:46.797Z,16.90
2022-10-20T16:51:29.445Z,16.90
2022-10-20T16:58:16.962Z,17.00
2022-10-20T17:05:03.009Z,16.70
2022-10-20T17:11:47.775Z,16.60
2022-10-20T17:18:30.126Z,16.50
2022-10-20T17:25:12.541Z,16.60
2022-10-20T17:31:54.849Z,16.70
2022-10-20T17:38:37.208Z,16.60
2022-10-20T17:45:20.012Z,16.60
2022-10-20T17:52:02.358Z,16.40
2022-10-20T17:58:47.287Z,16.50
2022-10-20T18:05:29.687Z,16.40
2022-10-20T18:12:12.062Z,16.50
2022-10-20T18:25:50.224Z,16.20
2022-10-20T18:32:34.666Z,16.10
2022-10-20T18:39:17.970Z,16.20
2022-10-20T18:46:01.201Z,16.20
2022-10-20T18:52:43.654Z,16.20
2022-10-20T18:59:26.560Z,16.20
2022-10-20T19:06:21.903Z,16.30
2022-10-20T19:13:04.243Z,16.20
2022-10-20T19:19:46.887Z,16.20
2022-10-20T19:26:37.721Z,16.20
2022-10-20T19:33:25.289Z,16.10
2022-10-20T19:40:09.517Z,16.20
2022-10-20T19:46:52.314Z,16.20
2022-10-20T19:53:34.636Z,16.10
2022-10-20T20:00:17.034Z,16.10
2022-10-20T20:07:02.108Z,16.00
2022-10-20T20:13:44.975Z,16.00
2022-10-20T20:20:27.298Z,16.00
2022-10-20T20:27:10.724Z,16.00
2022-10-20T20:33:53.568Z,16.00
2022-10-20T20:40:36.935Z,15.90
2022-10-20T20:47:19.237Z,15.90
2022-10-20T20:54:02.775Z,16.00
2022-10-20T21:00:45.226Z,16.00
2022-10-20T21:07:27.578Z,16.00
2022-10-20T21:14:10.196Z,16.00
2022-10-20T21:20:52.684Z,16.00
2022-10-20T21:27:35.026Z,16.00
2022-10-20T21:34:17.389Z,15.90
2022-10-20T21:41:14.941Z,15.90
2022-10-20T21:47:57.258Z,15.80
2022-10-20T21:54:39.582Z,15.60
2022-10-20T22:01:23.993Z,15.50
2022-10-20T22:08:06.545Z,15.50
2022-10-20T22:14:49.055Z,15.50
2022-10-20T22:21:31.892Z,15.50
2022-10-20T22:28:14.230Z,15.40
2022-10-20T22:34:56.563Z,15.20
2022-10-20T22:41:38.946Z,15.30
2022-10-20T22:48:21.393Z,15.30
2022-10-20T22:55:04.002Z,15.30
2022-10-20T23:01:46.323Z,15.20
2022-10-20T23:08:31.952Z,15.20
2022-10-20T23:15:15.210Z,15.20
2022-10-20T23:21:57.568Z,14.80
2022-10-20T23:28:40.197Z,14.50
2022-10-20T23:35:22.752Z,14.60
2022-10-20T23:42:07.355Z,14.50
2022-10-20T23:48:49.864Z,14.40
2022-10-20T23:55:32.156Z,14.30
